• Join FlightAware (Why Join?)
  • Login
  • US Flag 
04:38AM EST


 

Airport Tracker/Info


-or-


 

Live Flight TrackerFlight Track Log ✈ KAL61 ✈ 01-May-2013 ✈ RKSI / ICN - KLAX

Flight Track Log - Related Links

Times and Time Zones

All times are in EDT time to prevent confusion due to time zone crossing. See the KAL61 flight status page for this flight to view local times or setup timezone preferences in your user account.

Time Position Orientation Groundspeed Altitude Reporting Facility
EDT Latitude Longitude Course Direction KTS MPH feet Rate Location/Type
09:10AM 37.6876 128.7624 142° Southeast  Level FlightAware Approximate
09:11AM 37.6083 128.9146 119° Southeast  Level FlightAware Approximate
09:12AM 37.5337 129.0729 121° Southeast  Level FlightAware Approximate
09:13AM 37.4586 129.2306 121° Southeast  Level FlightAware Approximate
09:14AM 37.3873 129.3909 118° Southeast  Level FlightAware Approximate
09:15AM 37.3109 129.5473 122° Southeast  Level FlightAware Approximate
09:16AM 37.2340 129.7031 122° Southeast  Level FlightAware Approximate
09:17AM 37.1568 129.8586 122° Southeast  Level FlightAware Approximate
09:18AM 37.0794 130.0138 122° Southeast  Level FlightAware Approximate
09:19AM 37.0019 130.1687 122° Southeast  Level FlightAware Approximate
09:20AM 36.9241 130.3233 122° Southeast  Level FlightAware Approximate
09:21AM 36.8461 130.4775 122° Southeast  Level FlightAware Approximate
09:22AM 36.7679 130.6314 122° Southeast  Level FlightAware Approximate
09:23AM 36.6899 130.7853 122° Southeast  Level FlightAware Approximate
09:24AM 36.6118 130.9390 122° Southeast  Level FlightAware Approximate
09:25AM 36.5335 131.0923 122° Southeast  Level FlightAware Approximate
09:26AM 36.4550 131.2453 122° Southeast  Level FlightAware Approximate
09:27AM 36.3763 131.3981 123° Southeast  Level FlightAware Approximate
09:28AM 36.3617 131.5757 92° East  Level FlightAware Approximate
09:29AM 36.3559 131.7568 92° East  Level FlightAware Approximate
09:30AM 36.3497 131.9378 92° East  Level FlightAware Approximate
09:31AM 36.3433 132.1188 92° East  Level FlightAware Approximate
09:32AM 36.3366 132.2998 93° East  Level FlightAware Approximate
09:33AM 36.3297 132.4808 93° East  Level FlightAware Approximate
09:34AM 36.3224 132.6617 93° East  Level FlightAware Approximate
09:35AM 36.3149 132.8426 93° East  Level FlightAware Approximate
09:36AM 36.3071 133.0235 93° East  Level FlightAware Approximate
09:37AM 36.2991 133.2043 93° East  Level FlightAware Approximate
09:38AM 36.2907 133.3851 93° East  Level FlightAware Approximate
09:39AM 36.2821 133.5658 93° East  Level FlightAware Approximate
09:40AM 36.2733 133.7465 93° East  Level FlightAware Approximate
09:41AM 36.2641 133.9272 94° East  Level FlightAware Approximate
09:42AM 36.2547 134.1078 94° East  Level FlightAware Approximate
09:43AM 36.2450 134.2883 94° East  Level FlightAware Approximate
09:44AM 36.2351 134.4689 94° East  Level FlightAware Approximate
09:45AM 36.2480 134.6486 83° East  Level FlightAware Approximate
09:46AM 36.2654 134.8283 83° East  Level FlightAware Approximate
09:47AM 36.2825 135.0081 83° East  Level FlightAware Approximate
09:48AM 36.2966 135.1883 84° East  Level FlightAware Approximate
09:49AM 36.3103 135.3686 85° East  Level FlightAware Approximate
09:50AM 36.3237 135.5490 85° East  Level FlightAware Approximate
09:51AM 36.3369 135.7294 85° East  Level FlightAware Approximate
09:52AM 36.3498 135.9099 85° East  Level FlightAware Approximate
09:53AM 36.3624 136.0904 85° East  Level FlightAware Approximate
09:54AM 36.3747 136.2710 85° East  Level FlightAware Approximate
09:55AM 36.3886 136.4514 83° East  Level FlightAware Approximate
09:56AM 36.4070 136.6313 83° East  Level FlightAware Approximate
09:57AM 36.4252 136.8112 83° East  Level FlightAware Approximate
09:58AM 36.4430 136.9913 83° East  Level FlightAware Approximate
09:59AM 36.4606 137.1714 83° East  Level FlightAware Approximate
10:00AM 36.4779 137.3516 83° East  Level FlightAware Approximate
10:01AM 36.4949 137.5319 83° East  Level FlightAware Approximate
10:02AM 36.5117 137.7122 83° East  Level FlightAware Approximate
10:03AM 36.5278 137.8885 83° East  Level FlightAware Approximate
10:04AM 36.5437 138.0648 84° East  Level FlightAware Approximate
10:05AM 36.5593 138.2413 84° East  Level FlightAware Approximate
10:06AM 36.5746 138.4178 84° East  Level FlightAware Approximate
10:07AM 36.5897 138.5938 84° East  Level FlightAware Approximate
10:08AM 36.6047 138.7698 84° East  Level FlightAware Approximate
10:09AM 36.6203 138.9458 84° East  Level FlightAware Approximate
10:10AM 36.6355 139.1219 84° East  Level FlightAware Approximate
10:11AM 36.6505 139.2981 84° East  Level FlightAware Approximate
10:12AM 36.6653 139.4743 84° East  Level FlightAware Approximate
10:13AM 36.6797 139.6506 84° East  Level FlightAware Approximate
10:14AM 36.6940 139.8270 84° East  Level FlightAware Approximate
10:15AM 36.7079 140.0034 84° East  Level FlightAware Approximate
10:16AM 36.7216 140.1799 84° East  Level FlightAware Approximate
10:17AM 36.7354 140.3564 84° East  Level FlightAware Approximate
10:18AM 36.7509 140.5327 84° East  Level FlightAware Approximate
10:19AM 36.7662 140.7091 84° East  Level FlightAware Approximate
10:20AM 36.7812 140.8855 84° East  Level FlightAware Approximate
10:21AM 36.7959 141.0621 84° East  Level FlightAware Approximate
10:22AM 36.8104 141.2387 84° East  Level FlightAware Approximate
10:23AM 36.8243 141.4153 84° East  Level FlightAware Approximate
10:24AM 36.8377 141.5921 85° East  Level FlightAware Approximate
10:25AM 36.8508 141.7690 85° East  Level FlightAware Approximate
10:26AM 36.8637 141.9459 85° East  Level FlightAware Approximate
10:27AM 36.8763 142.1229 85° East  Level FlightAware Approximate
10:28AM 36.8886 142.2999 85° East  Level FlightAware Approximate
10:29AM 36.9007 142.4770 85° East  Level FlightAware Approximate
10:30AM 36.9134 142.6540 85° East  Level FlightAware Approximate
10:31AM 36.9258 142.8311 85° East  Level FlightAware Approximate
10:32AM 36.9380 143.0083 85° East  Level FlightAware Approximate
10:33AM 36.9498 143.1855 85° East  Level FlightAware Approximate
10:34AM 36.9614 143.3628 85° East  Level FlightAware Approximate
10:35AM 36.9728 143.5401 85° East  Level FlightAware Approximate
10:36AM 36.9839 143.7175 85° East  Level FlightAware Approximate
10:37AM 36.9947 143.8950 86° East  Level FlightAware Approximate
10:38AM 37.0103 144.0717 82° East  Level FlightAware Approximate
10:39AM 37.0307 144.2479 82° East  Level FlightAware Approximate
10:40AM 37.0508 144.4242 82° East  Level FlightAware Approximate
10:41AM 37.0707 144.6006 82° East  Level FlightAware Approximate
10:42AM 37.0903 144.7770 82° East  Level FlightAware Approximate
10:43AM 37.1097 144.9536 82° East  Level FlightAware Approximate
10:44AM 37.1287 145.1302 82° East  Level FlightAware Approximate
10:45AM 37.1476 145.3070 82° East  Level FlightAware Approximate
10:46AM 37.1661 145.4838 82° East  Level FlightAware Approximate
10:47AM 37.1879 145.6591 58° Northeast  Level FlightAware Approximate
10:48AM 37.2632 145.8105 58° Northeast  Level FlightAware Approximate
10:49AM 37.3384 145.9621 58° Northeast  Level FlightAware Approximate
10:50AM 37.4134 146.1141 58° Northeast  Level FlightAware Approximate
10:51AM 37.4882 146.2664 58° Northeast  Level FlightAware Approximate
10:52AM 37.5628 146.4189 58° Northeast  Level FlightAware Approximate
10:53AM 37.6371 146.5718 58° Northeast  Level FlightAware Approximate
10:54AM 37.7113 146.7250 58° Northeast  Level FlightAware Approximate
10:55AM 37.7853 146.8784 59° Northeast  Level FlightAware Approximate
10:56AM 37.8591 147.0322 59° Northeast  Level FlightAware Approximate
10:57AM 37.9327 147.1863 59° Northeast  Level FlightAware Approximate
10:58AM 38.0061 147.3407 59° Northeast  Level FlightAware Approximate
10:59AM 38.0793 147.4955 59° Northeast  Level FlightAware Approximate
11:00AM 38.1523 147.6505 59° Northeast  Level FlightAware Approximate
11:01AM 38.2255 147.8055 59° Northeast  Level FlightAware Approximate
11:02AM 38.2989 147.9605 59° Northeast  Level FlightAware Approximate
11:03AM 38.3720 148.1159 59° Northeast  Level FlightAware Approximate
11:04AM 38.4450 148.2716 59° Northeast  Level FlightAware Approximate
11:05AM 38.5177 148.4276 59° Northeast  Level FlightAware Approximate
11:06AM 38.5902 148.5839 59° Northeast  Level FlightAware Approximate
11:07AM 38.6626 148.7405 59° Northeast  Level FlightAware Approximate
11:08AM 38.7347 148.8974 59° Northeast  Level FlightAware Approximate
11:09AM 38.8066 149.0547 60° Northeast  Level FlightAware Approximate
11:10AM 38.8783 149.2123 60° Northeast  Level FlightAware Approximate
11:11AM 38.9498 149.3702 60° Northeast  Level FlightAware Approximate
11:12AM 39.0210 149.5284 60° Northeast  Level FlightAware Approximate
11:13AM 39.0921 149.6869 60° Northeast  Level FlightAware Approximate
11:14AM 39.1575 149.8488 73° East  Level FlightAware Approximate
11:15AM 39.1982 150.0245 73° East  Level FlightAware Approximate
11:16AM 39.2387 150.2003 73° East  Level FlightAware Approximate
11:17AM 39.2789 150.3764 74° East  Level FlightAware Approximate
11:18AM 39.3188 150.5527 74° East  Level FlightAware Approximate
11:19AM 39.3585 150.7291 74° East  Level FlightAware Approximate
11:20AM 39.3979 150.9058 74° East  Level FlightAware Approximate
11:21AM 39.4371 151.0827 74° East  Level FlightAware Approximate
11:22AM 39.4759 151.2598 74° East  Level FlightAware Approximate
11:23AM 39.5145 151.4370 74° East  Level FlightAware Approximate
11:24AM 39.5529 151.6145 74° East  Level FlightAware Approximate
11:25AM 39.5909 151.7921 74° East  Level FlightAware Approximate
11:26AM 39.6287 151.9700 75° East  Level FlightAware Approximate
11:27AM 39.6663 152.1481 75° East  Level FlightAware Approximate
11:28AM 39.7017 152.3269 76° East  Level FlightAware Approximate
11:29AM 39.7369 152.5060 76° East  Level FlightAware Approximate
11:30AM 39.7718 152.6852 76° East  Level FlightAware Approximate
11:31AM 39.8064 152.8646 76° East  Level FlightAware Approximate
11:32AM 39.8407 153.0442 76° East  Level FlightAware Approximate
11:33AM 39.8748 153.2240 76° East  Level FlightAware Approximate
11:34AM 39.9086 153.4039 76° East  Level FlightAware Approximate
11:35AM 39.9421 153.5840 76° East  Level FlightAware Approximate
11:36AM 39.9753 153.7643 76° East  Level FlightAware Approximate
11:37AM 40.0083 153.9448 77° East  Level FlightAware Approximate
11:38AM 40.0414 154.1253 76° East  Level FlightAware Approximate
11:39AM 40.0756 154.3055 76° East  Level FlightAware Approximate
11:40AM 40.1096 154.4859 76° East  Level FlightAware Approximate
11:41AM 40.1434 154.6665 76° East  Level FlightAware Approximate
11:42AM 40.1768 154.8473 76° East  Level FlightAware Approximate
11:43AM 40.2100 155.0282 76° East  Level FlightAware Approximate
11:44AM 40.2428 155.2093 77° East  Level FlightAware Approximate
11:45AM 40.2754 155.3906 77° East  Level FlightAware Approximate
11:46AM 40.3078 155.5721 77° East  Level FlightAware Approximate
11:47AM 40.3398 155.7537 77° East  Level FlightAware Approximate
11:48AM 40.3715 155.9355 77° East  Level FlightAware Approximate
11:49AM 40.4030 156.1175 77° East  Level FlightAware Approximate
11:50AM 40.4342 156.2997 77° East  Level FlightAware Approximate
11:51AM 40.4650 156.4820 77° East  Level FlightAware Approximate
11:52AM 40.4956 156.6645 78° East  Level FlightAware Approximate
11:53AM 40.5260 156.8471 78° East  Level FlightAware Approximate
11:54AM 40.5560 157.0300 78° East  Level FlightAware Approximate
11:55AM 40.5857 157.2129 78° East  Level FlightAware Approximate
11:56AM 40.6152 157.3961 78° East  Level FlightAware Approximate
11:57AM 40.6443 157.5794 78° East  Level FlightAware Approximate
11:58AM 40.6732 157.7628 78° East  Level FlightAware Approximate
11:59AM 40.7018 157.9465 78° East  Level FlightAware Approximate
12:00PM 40.7301 158.1302 78° East  Level FlightAware Approximate
12:01PM 40.7581 158.3142 79° East  Level FlightAware Approximate
12:02PM 40.7858 158.4982 79° East  Level FlightAware Approximate
12:03PM 40.8132 158.6825 79° East  Level FlightAware Approximate
12:04PM 40.8403 158.8669 79° East  Level FlightAware Approximate
12:05PM 40.8671 159.0514 79° East  Level FlightAware Approximate
12:06PM 40.8936 159.2361 79° East  Level FlightAware Approximate
12:07PM 40.9199 159.4209 79° East  Level FlightAware Approximate
12:08PM 40.9458 159.6059 79° East  Level FlightAware Approximate
12:09PM 40.9714 159.7911 80° East  Level FlightAware Approximate
12:10PM 40.9968 159.9763 80° East  Level FlightAware Approximate
12:11PM 41.0067 160.1641 87° East  Level FlightAware Approximate
12:12PM 41.0141 160.3522 87° East  Level FlightAware Approximate
12:13PM 41.0213 160.5403 87° East  Level FlightAware Approximate
12:14PM 41.0280 160.7285 87° East  Level FlightAware Approximate
12:15PM 41.0345 160.9167 87° East  Level FlightAware Approximate
12:16PM 41.0407 161.1050 87° East  Level FlightAware Approximate
12:17PM 41.0466 161.2933 88° East  Level FlightAware Approximate
12:18PM 41.0522 161.4816 88° East  Level FlightAware Approximate
12:19PM 41.0575 161.6700 88° East  Level FlightAware Approximate
12:20PM 41.0625 161.8584 88° East  Level FlightAware Approximate
12:21PM 41.0671 162.0468 88° East  Level FlightAware Approximate
12:22PM 41.0715 162.2352 88° East  Level FlightAware Approximate
12:23PM 41.0755 162.4237 88° East  Level FlightAware Approximate
12:23PM 41.1000 165.0333 90° East 588 677 33,000  Level Oakland Oceanic (ODAPS)
12:24PM 41.0792 162.6122 88° East  Level FlightAware Approximate
12:24PM 41.1000 165.0000 90° East 590 679 33,000  Level Oakland Oceanic (ODAPS)
12:25PM 41.0827 162.8007 89° East  Level FlightAware Approximate
12:26PM 41.0858 162.9892 89° East  Level FlightAware Approximate
12:27PM 41.0886 163.1778 89° East  Level FlightAware Approximate
12:28PM 41.0911 163.3664 89° East  Level FlightAware Approximate
12:29PM 41.0933 163.5549 89° East  Level FlightAware Approximate
12:30PM 41.0948 166.3056 91° East 590 679 33,000  Level FlightAware Transoceanic
12:31PM 41.0925 166.5231 91° East 590 679 33,000  Level FlightAware Transoceanic
12:32PM 41.0897 166.7407 91° East 590 679 33,000  Level FlightAware Transoceanic
12:33PM 41.0866 166.9582 91° East 590 679 33,000 660 Level FlightAware Transoceanic
12:33PM 41.0833 167.0833 91° East 603 694 34,000  Climbing Oakland Oceanic (ODAPS)
12:34PM 41.0831 167.1757 91° East 590 679 33,000 -660 Descending FlightAware Transoceanic
12:35PM 41.0792 167.3932 91° East 590 679 33,000  Level FlightAware Transoceanic
12:36PM 41.0748 167.6106 92° East 590 679 33,000  Level FlightAware Transoceanic
12:37PM 41.0700 167.8280 92° East 590 679 33,000  Level FlightAware Transoceanic
12:38PM 41.0649 168.0454 92° East 590 679 33,000 480 Level FlightAware Transoceanic
12:39PM 41.0540 168.4304 92° East 603 694 34,000 480 Climbing FlightAware Transoceanic
12:40PM 41.0476 168.6548 92° East 603 694 34,000  Level FlightAware Transoceanic
12:41PM 41.0407 168.8791 92° East 603 694 34,000  Level FlightAware Transoceanic
12:42PM 41.0335 169.1034 93° East 603 694 34,000  Level FlightAware Transoceanic
12:43PM 41.0257 169.3276 93° East 603 694 34,000  Level FlightAware Transoceanic
12:44PM 41.0176 169.5518 93° East 603 694 34,000  Level FlightAware Transoceanic
12:45PM 41.0090 169.7759 93° East 603 694 34,000  Level FlightAware Transoceanic
12:46PM 41.0000 170.0000 87° East 603 694 34,000  Level FlightAware Transoceanic
12:47PM 41.0079 170.1848 87° East 603 694 34,000 840 Level FlightAware Transoceanic
12:47PM 41.0000 170.0000 87° East 551 634 35,000 2,280 Climbing Oakland Oceanic (ODAPS)
12:47PM 41.0000 170.1000 87° East 538 619 35,000 -1,200 Level Oakland Oceanic (ODAPS)
12:48PM 41.0154 170.3696 87° East 603 694 34,000 -660 Descending FlightAware Transoceanic
12:49PM 41.0227 170.5545 87° East 603 694 34,000  Level FlightAware Transoceanic
12:50PM 41.0297 170.7395 87° East 603 694 34,000  Level FlightAware Transoceanic
12:51PM 41.0363 170.9244 87° East 603 694 34,000  Level FlightAware Transoceanic
12:52PM 41.0427 171.1094 87° East 603 694 34,000 480 Level FlightAware Transoceanic
12:53PM 41.0448 171.2863 88° East 538 619 35,000 480 Climbing FlightAware Transoceanic
12:54PM 41.0510 171.4842 88° East 538 619 35,000  Level FlightAware Transoceanic
12:55PM 41.0570 171.6821 88° East 538 619 35,000  Level FlightAware Transoceanic
12:56PM 41.0626 171.8800 88° East 538 619 35,000  Level FlightAware Transoceanic
12:57PM 41.0678 172.0780 88° East 538 619 35,000  Level FlightAware Transoceanic
12:58PM 41.0728 172.2760 88° East 538 619 35,000  Level FlightAware Transoceanic
12:59PM 41.0773 172.4740 88° East 538 619 35,000  Level FlightAware Transoceanic
01:00PM 41.0816 172.6720 88° East 538 619 35,000  Level FlightAware Transoceanic
01:01PM 41.0855 172.8701 89° East 538 619 35,000  Level FlightAware Transoceanic
01:01PM 41.0833 172.8167 89° East 512 589 35,000  Level Oakland Oceanic (ODAPS)
01:02PM 41.0891 173.0682 89° East 538 619 35,000  Level FlightAware Transoceanic
01:03PM 41.0923 173.2663 89° East 538 619 35,000  Level FlightAware Transoceanic
01:04PM 41.0952 173.4645 89° East 538 619 35,000  Level FlightAware Transoceanic
01:05PM 41.0977 173.6626 89° East 538 619 35,000  Level FlightAware Transoceanic
01:06PM 41.0999 173.8608 89° East 538 619 35,000  Level FlightAware Transoceanic
01:07PM 41.0999 173.9514 89° East 512 589 35,000  Level FlightAware Transoceanic
01:08PM 41.1015 174.1405 89° East 512 589 35,000  Level FlightAware Transoceanic
01:09PM 41.1029 174.3297 90° East 512 589 35,000  Level FlightAware Transoceanic
01:10PM 41.1040 174.5188 90° East 512 589 35,000  Level FlightAware Transoceanic
01:11PM 41.1047 174.7080 90° East 512 589 35,000  Level FlightAware Transoceanic
01:12PM 41.1051 174.8972 90° East 512 589 35,000  Level FlightAware Transoceanic
01:13PM 41.1053 175.0864 90° East 512 589 35,000  Level FlightAware Transoceanic
01:14PM 41.1051 175.2756 90° East 512 589 35,000  Level FlightAware Transoceanic
01:15PM 41.1046 175.4648 90° East 512 589 35,000  Level FlightAware Transoceanic
01:15PM 41.1000 175.3833 90° East 507 583 35,000  Level Oakland Oceanic (ODAPS)
01:16PM 41.1038 175.6540 90° East 512 589 35,000  Level FlightAware Transoceanic
01:17PM 41.1027 175.8431 91° East 512 589 35,000  Level FlightAware Transoceanic
01:18PM 41.1012 176.0323 91° East 512 589 35,000  Level FlightAware Transoceanic
01:19PM 41.0995 176.2215 91° East 512 589 35,000  Level FlightAware Transoceanic
01:20PM 41.0975 176.4106 91° East 512 589 35,000  Level FlightAware Transoceanic
01:21PM 41.0928 176.4924 91° East 507 583 35,000  Level FlightAware Transoceanic
01:22PM 41.0906 176.6772 91° East 507 583 35,000  Level FlightAware Transoceanic
01:23PM 41.0881 176.8620 91° East 507 583 35,000  Level FlightAware Transoceanic
01:24PM 41.0852 177.0468 91° East 507 583 35,000  Level FlightAware Transoceanic
01:25PM 41.0821 177.2316 91° East 507 583 35,000  Level FlightAware Transoceanic
01:26PM 41.0787 177.4163 91° East 507 583 35,000  Level FlightAware Transoceanic
01:27PM 41.0750 177.6011 92° East 507 583 35,000  Level FlightAware Transoceanic
01:28PM 41.0710 177.7858 92° East 507 583 35,000  Level FlightAware Transoceanic
01:28PM 41.0667 177.9500 92° East 502 578 35,000  Level Oakland Oceanic (ODAPS)
01:29PM 41.0667 177.9705 92° East 507 583 35,000  Level FlightAware Transoceanic
01:30PM 41.0621 178.1551 92° East 507 583 35,000  Level FlightAware Transoceanic
01:31PM 41.0572 178.3398 92° East 507 583 35,000  Level FlightAware Transoceanic
01:32PM 41.0520 178.5244 92° East 507 583 35,000  Level FlightAware Transoceanic
01:33PM 41.0466 178.7089 92° East 507 583 35,000  Level FlightAware Transoceanic
01:34PM 41.0408 178.8935 92° East 507 583 35,000  Level FlightAware Transoceanic
01:35PM 41.0348 179.0687 93° East 502 578 35,000  Level FlightAware Transoceanic
01:36PM 41.0284 179.2550 93° East 502 578 35,000  Level FlightAware Transoceanic
01:37PM 41.0218 179.4413 93° East 502 578 35,000  Level FlightAware Transoceanic
01:38PM 41.0148 179.6276 93° East 502 578 35,000  Level FlightAware Transoceanic
01:39PM 41.0076 179.8138 93° East 502 578 35,000  Level FlightAware Transoceanic
01:39PM 41.0000 180.0000 87° East 507 583 35,000  Level Oakland Oceanic (ODAPS)
01:40PM 41.0000 -180.0000 87° East 502 578 35,000  Level FlightAware Transoceanic
01:41PM 41.0079 -179.8152 87° East 502 578 35,000  Level FlightAware Transoceanic
01:42PM 41.0154 -179.6304 87° East 502 578 35,000  Level FlightAware Transoceanic
01:42PM 41.0167 -179.4667 87° East 511 588 35,000  Level Oakland Oceanic (ODAPS)
01:43PM 41.0227 -179.4455 87° East 502 578 35,000  Level FlightAware Transoceanic
01:44PM 41.0297 -179.2605 87° East 502 578 35,000  Level FlightAware Transoceanic
01:45PM 41.0363 -179.0756 87° East 502 578 35,000  Level FlightAware Transoceanic
01:46PM 41.0434 -178.8696 87° East 507 583 35,000  Level FlightAware Transoceanic
01:47PM 41.0496 -178.6811 88° East 507 583 35,000  Level FlightAware Transoceanic
01:48PM 41.0499 -178.5211 88° East 511 588 35,000  Level FlightAware Transoceanic
01:49PM 41.0556 -178.3319 88° East 511 588 35,000  Level FlightAware Transoceanic
01:50PM 41.0610 -178.1427 88° East 511 588 35,000  Level FlightAware Transoceanic
01:51PM 41.0661 -177.9534 88° East 511 588 35,000  Level FlightAware Transoceanic
01:52PM 41.0709 -177.7641 88° East 511 588 35,000  Level FlightAware Transoceanic
01:53PM 41.0754 -177.5747 88° East 511 588 35,000  Level FlightAware Transoceanic
01:54PM 41.0795 -177.3854 88° East 511 588 35,000  Level FlightAware Transoceanic
01:55PM 41.0834 -177.1960 89° East 511 588 35,000  Level FlightAware Transoceanic
01:56PM 41.0869 -177.0066 89° East 511 588 35,000  Level FlightAware Transoceanic
01:56PM 41.1000 -176.8500 89° East 512 589 35,000  Level Oakland Oceanic (ODAPS)
01:57PM 41.0902 -176.8172 89° East 511 588 35,000  Level FlightAware Transoceanic
01:58PM 41.0931 -176.6277 89° East 511 588 35,000  Level FlightAware Transoceanic
01:59PM 41.0957 -176.4383 89° East 511 588 35,000  Level FlightAware Transoceanic
02:00PM 41.0980 -176.2488 89° East 511 588 35,000  Level FlightAware Transoceanic
02:01PM 41.1000 -176.0593 89° East 511 588 35,000  Level FlightAware Transoceanic
02:02PM 41.1104 -175.8980 89° East 512 589 35,000  Level FlightAware Transoceanic
02:03PM 41.1115 -175.7075 90° East 512 589 35,000  Level FlightAware Transoceanic
02:04PM 41.1124 -175.5171 90° East 512 589 35,000  Level FlightAware Transoceanic
02:05PM 41.1129 -175.3266 90° East 512 589 35,000  Level FlightAware Transoceanic
02:06PM 41.1131 -175.1362 90° East 512 589 35,000  Level FlightAware Transoceanic
02:07PM 41.1129 -174.9458 90° East 512 589 35,000  Level FlightAware Transoceanic
02:08PM 41.1125 -174.7553 90° East 512 589 35,000  Level FlightAware Transoceanic
02:09PM 41.1118 -174.5649 90° East 512 589 35,000  Level FlightAware Transoceanic
02:10PM 41.1107 -174.3744 90° East 512 589 35,000  Level FlightAware Transoceanic
02:10PM 41.1000 -174.2167 90° East 515 593 35,000  Level Oakland Oceanic (ODAPS)
02:11PM 41.1093 -174.1840 91° East 512 589 35,000  Level FlightAware Transoceanic
02:12PM 41.1077 -173.9936 91° East 512 589 35,000  Level FlightAware Transoceanic
02:13PM 41.1057 -173.8032 91° East 512 589 35,000  Level FlightAware Transoceanic
02:14PM 41.1034 -173.6128 91° East 512 589 35,000  Level FlightAware Transoceanic
02:15PM 41.1007 -173.4224 91° East 512 589 35,000  Level FlightAware Transoceanic
02:16PM 41.0887 -173.1156 91° East 515 593 35,000  Level FlightAware Transoceanic
02:17PM 41.0858 -172.9321 91° East 515 593 35,000  Level FlightAware Transoceanic
02:18PM 41.0827 -172.7487 91° East 515 593 35,000  Level FlightAware Transoceanic
02:19PM 41.0792 -172.5652 92° East 515 593 35,000  Level FlightAware Transoceanic
02:20PM 41.0754 -172.3818 92° East 515 593 35,000  Level FlightAware Transoceanic
02:21PM 41.0714 -172.1984 92° East 515 593 35,000  Level FlightAware Transoceanic
02:22PM 41.0670 -172.0150 92° East 515 593 35,000  Level FlightAware Transoceanic
02:23PM 41.0624 -171.8317 92° East 515 593 35,000  Level FlightAware Transoceanic
02:24PM 41.0574 -171.6484 92° East 515 593 35,000  Level FlightAware Transoceanic
02:24PM 41.0500 -171.6000 92° East 513 590 35,000  Level Oakland Oceanic (ODAPS)
02:25PM 41.0522 -171.4651 92° East 515 593 35,000  Level FlightAware Transoceanic
02:26PM 41.0467 -171.2818 92° East 515 593 35,000  Level FlightAware Transoceanic
02:27PM 41.0409 -171.0986 92° East 515 593 35,000  Level FlightAware Transoceanic
02:28PM 41.0348 -170.9154 93° East 515 593 35,000  Level FlightAware Transoceanic
02:29PM 41.0284 -170.7323 93° East 515 593 35,000  Level FlightAware Transoceanic
02:30PM 41.0191 -170.5331 93° East 513 590 35,000  Level FlightAware Transoceanic
02:31PM 41.0130 -170.3553 93° East 513 590 35,000  Level FlightAware Transoceanic
02:32PM 41.0066 -170.1776 93° East 513 590 35,000  Level FlightAware Transoceanic
02:32PM 41.0000 -170.0000 87° East 517 595 35,000  Level Oakland Oceanic (ODAPS)
02:33PM 41.0000 -170.0000 87° East 513 590 35,000  Level FlightAware Transoceanic
02:34PM 41.0081 -169.8081 87° East 513 590 35,000  Level FlightAware Transoceanic
02:35PM 41.0160 -169.6161 87° East 513 590 35,000  Level FlightAware Transoceanic
02:36PM 41.0235 -169.4241 87° East 513 590 35,000  Level FlightAware Transoceanic
02:37PM 41.0307 -169.2321 87° East 513 590 35,000  Level FlightAware Transoceanic
02:38PM 41.0376 -169.0400 87° East 513 590 35,000  Level FlightAware Transoceanic
02:38PM 41.0333 -169.0000 87° East 517 595 35,000  Level Oakland Oceanic (ODAPS)
02:39PM 41.0441 -168.8479 87° East 517 595 35,000  Level FlightAware Transoceanic
02:40PM 41.0504 -168.6557 88° East 517 595 35,000  Level FlightAware Transoceanic
02:41PM 41.0563 -168.4635 88° East 517 595 35,000  Level FlightAware Transoceanic
02:42PM 41.0619 -168.2713 88° East 517 595 35,000  Level FlightAware Transoceanic
02:43PM 41.0672 -168.0790 88° East 517 595 35,000  Level FlightAware Transoceanic
02:44PM 41.0675 -167.8758 88° East 517 595 35,000  Level FlightAware Transoceanic
02:45PM 41.0721 -167.6883 88° East 517 595 35,000  Level FlightAware Transoceanic
02:46PM 41.0764 -167.5009 88° East 517 595 35,000  Level FlightAware Transoceanic
02:47PM 41.0805 -167.3133 88° East 517 595 35,000  Level FlightAware Transoceanic
02:48PM 41.0842 -167.1258 89° East 517 595 35,000  Level FlightAware Transoceanic
02:49PM 41.0876 -166.9382 89° East 517 595 35,000  Level FlightAware Transoceanic
02:50PM 41.0907 -166.7506 89° East 517 595 35,000  Level FlightAware Transoceanic
02:51PM 41.0935 -166.5630 89° East 517 595 35,000  Level FlightAware Transoceanic
02:52PM 41.0960 -166.3754 89° East 517 595 35,000  Level FlightAware Transoceanic
02:52PM 41.1000 -166.3500 89° East 525 604 35,000  Level Oakland Oceanic (ODAPS)
02:53PM 41.0982 -166.1878 89° East 517 595 35,000  Level FlightAware Transoceanic
02:54PM 41.1001 -166.0002 89° East 517 595 35,000  Level FlightAware Transoceanic
02:55PM 41.1017 -165.8125 89° East 517 595 35,000  Level FlightAware Transoceanic
02:56PM 41.1030 -165.6249 90° East 517 595 35,000  Level FlightAware Transoceanic
02:57PM 41.1040 -165.4372 90° East 517 595 35,000  Level FlightAware Transoceanic
02:58PM 41.1078 -165.1945 90° East 525 604 35,000  Level FlightAware Transoceanic
02:59PM 41.1079 -165.0020 90° East 525 604 35,000  Level FlightAware Transoceanic
03:00PM 41.1078 -164.8094 90° East 525 604 35,000  Level FlightAware Transoceanic
03:01PM 41.1073 -164.6168 90° East 525 604 35,000  Level FlightAware Transoceanic
03:02PM 41.1065 -164.4242 90° East 525 604 35,000  Level FlightAware Transoceanic
03:03PM 41.1054 -164.2316 91° East 525 604 35,000  Level FlightAware Transoceanic
03:04PM 41.1040 -164.0390 91° East 525 604 35,000  Level FlightAware Transoceanic
03:05PM 41.1022 -163.8465 91° East 525 604 35,000  Level FlightAware Transoceanic
03:06PM 41.1002 -163.6539 91° East 525 604 35,000  Level FlightAware Transoceanic
03:06PM 41.1000 -163.6833 91° East 527 606 35,000  Level Oakland Oceanic (ODAPS)
03:07PM 41.0978 -163.4614 91° East 525 604 35,000  Level FlightAware Transoceanic
03:08PM 41.0951 -163.2688 91° East 525 604 35,000  Level FlightAware Transoceanic
03:09PM 41.0920 -163.0763 91° East 525 604 35,000  Level FlightAware Transoceanic
03:10PM 41.0887 -162.8838 91° East 525 604 35,000  Level FlightAware Transoceanic
03:11PM 41.0850 -162.6914 92° East 525 604 35,000  Level FlightAware Transoceanic
03:12PM 41.0811 -162.5190 92° East 527 606 35,000  Level FlightAware Transoceanic
03:13PM 41.0768 -162.3251 92° East 527 606 35,000  Level FlightAware Transoceanic
03:14PM 41.0722 -162.1311 92° East 527 606 35,000  Level FlightAware Transoceanic
03:15PM 41.0672 -161.9372 92° East 527 606 35,000  Level FlightAware Transoceanic
03:16PM 41.0620 -161.7433 92° East 527 606 35,000  Level FlightAware Transoceanic
03:17PM 41.0564 -161.5495 92° East 527 606 35,000  Level FlightAware Transoceanic
03:18PM 41.0505 -161.3557 92° East 527 606 35,000  Level FlightAware Transoceanic
03:19PM 41.0443 -161.1619 93° East 527 606 35,000  Level FlightAware Transoceanic
03:19PM 41.0333 -160.9667 92° East 541 623 35,000  Level Oakland Oceanic (ODAPS)
03:20PM 41.0377 -160.9681 93° East 527 606 35,000  Level FlightAware Transoceanic
03:21PM 41.0308 -160.7744 93° East 527 606 35,000  Level FlightAware Transoceanic
03:22PM 41.0236 -160.5807 93° East 527 606 35,000  Level FlightAware Transoceanic
03:23PM 41.0160 -160.3871 93° East 527 606 35,000  Level FlightAware Transoceanic
03:24PM 41.0082 -160.1935 93° East 527 606 35,000  Level FlightAware Transoceanic
03:24PM 41.0000 -160.0000 79° East 542 624 35,000  Level Oakland Oceanic (ODAPS)
03:25PM 41.0000 -160.0000 79° East 527 606 35,000  Level FlightAware Transoceanic
03:26PM 41.0290 -159.7994 79° East 541 623 35,000  Level FlightAware Transoceanic
03:27PM 41.0576 -159.5986 79° East 541 623 35,000  Level FlightAware Transoceanic
03:28PM 41.0859 -159.3977 79° East 541 623 35,000  Level FlightAware Transoceanic
03:29PM 41.1138 -159.1965 80° East 541 623 35,000  Level FlightAware Transoceanic
03:30PM 41.1414 -158.9952 80° East 541 623 35,000  Level FlightAware Transoceanic
03:31PM 41.1654 -158.8180 80° East 542 624 35,000  Level FlightAware Transoceanic
03:32PM 41.1918 -158.6204 80° East 542 624 35,000  Level FlightAware Transoceanic
03:33PM 41.2178 -158.4227 80° East 542 624 35,000 1,080 Level FlightAware Transoceanic
03:33PM 41.2333 -158.2500 80° East 536 617 37,000  Climbing Oakland Oceanic (ODAPS)
03:34PM 41.2435 -158.2248 80° East 542 624 35,000 -1,740 Descending FlightAware Transoceanic
03:35PM 41.2689 -158.0267 80° East 542 624 35,000  Level FlightAware Transoceanic
03:36PM 41.2939 -157.8285 81° East 542 624 35,000  Level FlightAware Transoceanic
03:37PM 41.3186 -157.6302 81° East 542 624 35,000  Level FlightAware Transoceanic
03:38PM 41.3430 -157.4317 81° East 542 624 35,000  Level FlightAware Transoceanic
03:39PM 41.3670 -157.2330 81° East 542 624 35,000 960 Level FlightAware Transoceanic
03:40PM 41.3788 -157.0845 81° East 536 617 37,000 960 Climbing FlightAware Transoceanic
03:41PM 41.4019 -156.8897 81° East 536 617 37,000  Level FlightAware Transoceanic
03:42PM 41.4246 -156.6948 81° East 536 617 37,000  Level FlightAware Transoceanic
03:43PM 41.4471 -156.4998 81° East 536 617 37,000  Level FlightAware Transoceanic
03:44PM 41.4692 -156.3046 81° East 536 617 37,000  Level FlightAware Transoceanic
03:45PM 41.4910 -156.1093 82° East 536 617 37,000  Level FlightAware Transoceanic
03:46PM 41.5124 -155.9139 82° East 536 617 37,000  Level FlightAware Transoceanic
03:47PM 41.5335 -155.7184 82° East 536 617 37,000  Level FlightAware Transoceanic
03:47PM 41.5500 -155.5833 82° East 522 601 37,000  Level Oakland Oceanic (ODAPS)
03:48PM 41.5543 -155.5227 82° East 536 617 37,000  Level FlightAware Transoceanic
03:49PM 41.5747 -155.3269 82° East 536 617 37,000  Level FlightAware Transoceanic
03:50PM 41.5949 -155.1310 82° East 536 617 37,000  Level FlightAware Transoceanic
03:51PM 41.6147 -154.9349 82° East 536 617 37,000  Level FlightAware Transoceanic
03:52PM 41.6341 -154.7388 83° East 536 617 37,000  Level FlightAware Transoceanic
03:53PM 41.6532 -154.5425 83° East 536 617 37,000  Level FlightAware Transoceanic
03:54PM 41.6833 -154.2432 83° East 522 601 37,000  Level FlightAware Transoceanic
03:55PM 41.7011 -154.0513 83° East 522 601 37,000  Level FlightAware Transoceanic
03:56PM 41.7185 -153.8593 83° East 522 601 37,000  Level FlightAware Transoceanic
03:57PM 41.7357 -153.6672 83° East 522 601 37,000  Level FlightAware Transoceanic
03:58PM 41.7525 -153.4750 83° East 522 601 37,000  Level FlightAware Transoceanic
03:59PM 41.7690 -153.2827 84° East 522 601 37,000  Level FlightAware Transoceanic
04:00PM 41.7851 -153.0903 84° East 522 601 37,000  Level FlightAware Transoceanic
04:01PM 41.8010 -152.8978 84° East 522 601 37,000  Level FlightAware Transoceanic
04:01PM 41.8000 -152.9833 84° East 520 598 37,000  Level Oakland Oceanic (ODAPS)
04:02PM 41.8165 -152.7052 84° East 522 601 37,000  Level FlightAware Transoceanic
04:03PM 41.8317 -152.5125 84° East 522 601 37,000  Level FlightAware Transoceanic
04:04PM 41.8466 -152.3197 84° East 522 601 37,000  Level FlightAware Transoceanic
04:05PM 41.8612 -152.1268 84° East 522 601 37,000  Level FlightAware Transoceanic
04:06PM 41.8754 -151.9339 84° East 522 601 37,000  Level FlightAware Transoceanic
04:07PM 41.8893 -151.7408 85° East 522 601 37,000  Level FlightAware Transoceanic
04:08PM 41.8970 -151.6804 85° East 520 598 37,000  Level FlightAware Transoceanic
04:09PM 41.9096 -151.4940 85° East 520 598 37,000  Level FlightAware Transoceanic
04:10PM 41.9220 -151.3075 85° East 520 598 37,000  Level FlightAware Transoceanic
04:11PM 41.9341 -151.1209 85° East 520 598 37,000  Level FlightAware Transoceanic
04:12PM 41.9458 -150.9342 85° East 520 598 37,000  Level FlightAware Transoceanic
04:13PM 41.9572 -150.7475 85° East 520 598 37,000  Level FlightAware Transoceanic
04:14PM 41.9684 -150.5607 85° East 520 598 37,000  Level FlightAware Transoceanic
04:15PM 41.9792 -150.3739 86° East 520 598 37,000  Level FlightAware Transoceanic
04:15PM 41.9833 -150.3000 86° East 519 597 37,000  Level Oakland Oceanic (ODAPS)
04:16PM 41.9898 -150.1870 86° East 520 598 37,000  Level FlightAware Transoceanic
04:16PM 42.0000 -150.0000 87° East 531 611 37,000  Level Oakland Oceanic (ODAPS)
04:17PM 42.0000 -150.0000 87° East 520 598 37,000  Level FlightAware Transoceanic
04:18PM 42.0083 -149.8043 87° East 520 598 37,000  Level FlightAware Transoceanic
04:19PM 42.0164 -149.6086 87° East 520 598 37,000  Level FlightAware Transoceanic
04:20PM 42.0240 -149.4129 87° East 520 598 37,000  Level FlightAware Transoceanic
04:21PM 42.0314 -149.2171 87° East 519 597 37,000  Level FlightAware Transoceanic
04:22PM 42.0384 -149.0212 87° East 519 597 37,000  Level FlightAware Transoceanic
04:23PM 42.0459 -148.8018 87° East 531 611 37,000  Level FlightAware Transoceanic
04:24PM 42.0523 -148.6020 88° East 531 611 37,000  Level FlightAware Transoceanic
04:25PM 42.0584 -148.4021 88° East 531 611 37,000  Level FlightAware Transoceanic
04:26PM 42.0641 -148.2021 88° East 531 611 37,000  Level FlightAware Transoceanic
04:27PM 42.0695 -148.0022 88° East 531 611 37,000  Level FlightAware Transoceanic
04:28PM 42.0746 -147.8022 88° East 531 611 37,000  Level FlightAware Transoceanic
04:29PM 42.0792 -147.6022 88° East 531 611 37,000  Level FlightAware Transoceanic
04:29PM 42.0833 -147.5833 88° East 534 615 37,000  Level Oakland Oceanic (ODAPS)
04:30PM 42.0836 -147.4021 88° East 531 611 37,000  Level FlightAware Transoceanic
04:31PM 42.0876 -147.2020 89° East 531 611 37,000  Level FlightAware Transoceanic
04:32PM 42.0912 -147.0019 89° East 531 611 37,000  Level FlightAware Transoceanic
04:33PM 42.0946 -146.8018 89° East 531 611 37,000  Level FlightAware Transoceanic
04:34PM 42.0975 -146.6016 89° East 531 611 37,000  Level FlightAware Transoceanic
04:35PM 42.1034 -146.3855 89° East 534 615 37,000  Level FlightAware Transoceanic
04:36PM 42.1055 -146.1859 89° East 534 615 37,000  Level FlightAware Transoceanic
04:37PM 42.1073 -145.9861 89° East 534 615 37,000  Level FlightAware Transoceanic
04:38PM 42.1088 -145.7864 90° East 534 615 37,000  Level FlightAware Transoceanic
04:39PM 42.1099 -145.5867 90° East 534 615 37,000  Level FlightAware Transoceanic
04:40PM 42.1106 -145.3870 90° East 534 615 37,000  Level FlightAware Transoceanic
04:41PM 42.1110 -145.1872 90° East 534 615 37,000  Level FlightAware Transoceanic
04:42PM 42.1111 -144.9875 90° East 534 615 37,000  Level FlightAware Transoceanic
04:43PM 42.1108 -144.7878 90° East 534 615 37,000  Level FlightAware Transoceanic
04:43PM 42.1167 -144.8333 90° East 535 616 37,000  Level Oakland Oceanic (ODAPS)
04:44PM 42.1101 -144.5880 90° East 534 615 37,000  Level FlightAware Transoceanic
04:45PM 42.1091 -144.3883 90° East 534 615 37,000  Level FlightAware Transoceanic
04:46PM 42.1078 -144.1886 91° East 534 615 37,000  Level FlightAware Transoceanic
04:47PM 42.1061 -143.9889 91° East 534 615 37,000  Level FlightAware Transoceanic
04:48PM 42.1041 -143.7892 91° East 534 615 37,000  Level FlightAware Transoceanic
04:49PM 42.1065 -143.6236 91° East 535 616 37,000  Level FlightAware Transoceanic
04:50PM 42.1036 -143.4220 91° East 535 616 37,000  Level FlightAware Transoceanic
04:51PM 42.1003 -143.2204 91° East 535 616 37,000  Level FlightAware Transoceanic
04:52PM 42.0967 -143.0189 91° East 535 616 37,000  Level FlightAware Transoceanic
04:53PM 42.0927 -142.8174 92° East 535 616 37,000  Level FlightAware Transoceanic
04:54PM 42.0884 -142.6159 92° East 535 616 37,000  Level FlightAware Transoceanic
04:55PM 42.0837 -142.4144 92° East 535 616 37,000  Level FlightAware Transoceanic
04:56PM 42.0787 -142.2130 92° East 535 616 37,000  Level FlightAware Transoceanic
04:56PM 42.0667 -142.1000 92° East 520 598 37,000  Level Oakland Oceanic (ODAPS)
04:57PM 42.0733 -142.0116 92° East 535 616 37,000  Level FlightAware Transoceanic
04:58PM 42.0675 -141.8103 92° East 535 616 37,000  Level FlightAware Transoceanic
04:59PM 42.0614 -141.6089 92° East 535 616 37,000  Level FlightAware Transoceanic
05:00PM 42.0550 -141.4077 93° East 535 616 37,000  Level FlightAware Transoceanic
05:01PM 42.0482 -141.2064 93° East 535 616 37,000  Level FlightAware Transoceanic
05:02PM 42.0410 -141.0052 93° East 535 616 37,000  Level FlightAware Transoceanic
05:03PM 42.0350 -140.9540 93° East 520 598 37,000  Level FlightAware Transoceanic
05:04PM 42.0287 -140.7631 93° East 520 598 37,000  Level FlightAware Transoceanic
05:05PM 42.0220 -140.5723 93° East 520 598 37,000  Level FlightAware Transoceanic
05:06PM 42.0150 -140.3815 93° East 520 598 37,000  Level FlightAware Transoceanic
05:07PM 42.0076 -140.1907 93° East 520 598 37,000  Level FlightAware Transoceanic
05:07PM 42.0000 -140.0000 94° East 514 592 37,000  Level Oakland Oceanic (ODAPS)
05:08PM 42.0000 -140.0000 94° East 520 598 37,000  Level FlightAware Transoceanic
05:09PM 41.9892 -139.8088 94° East 520 598 37,000  Level FlightAware Transoceanic
05:10PM 41.9782 -139.6177 95° East 520 598 37,000  Level FlightAware Transoceanic
05:10PM 41.9667 -139.4500 95° East 508 585 37,000  Level Oakland Oceanic (ODAPS)
05:11PM 41.9668 -139.4267 95° East 520 598 37,000  Level FlightAware Transoceanic
05:12PM 41.9551 -139.2357 95° East 520 598 37,000  Level FlightAware Transoceanic
05:13PM 41.9430 -139.0448 95° East 520 598 37,000  Level FlightAware Transoceanic
05:14PM 41.9307 -138.8540 95° East 514 592 37,000  Level FlightAware Transoceanic
05:15PM 41.9180 -138.6633 95° East 514 592 37,000  Level FlightAware Transoceanic
05:16PM 41.9050 -138.4726 95° East 514 592 37,000  Level FlightAware Transoceanic
05:17PM 41.8919 -138.3025 95° East 508 585 37,000  Level FlightAware Transoceanic
05:18PM 41.8783 -138.1115 96° East 508 585 37,000  Level FlightAware Transoceanic
05:19PM 41.8644 -137.9206 96° East 508 585 37,000  Level FlightAware Transoceanic
05:20PM 41.8502 -137.7298 96° East 508 585 37,000  Level FlightAware Transoceanic
05:21PM 41.8357 -137.5391 96° East 508 585 37,000  Level FlightAware Transoceanic
05:22PM 41.8208 -137.3484 96° East 508 585 37,000  Level FlightAware Transoceanic
05:23PM 41.8057 -137.1579 96° East 508 585 37,000  Level FlightAware Transoceanic
05:24PM 41.7902 -136.9674 96° East 508 585 37,000  Level FlightAware Transoceanic
05:24PM 41.7833 -136.8500 96° East 509 586 37,000  Level Oakland Oceanic (ODAPS)
05:25PM 41.7744 -136.7771 96° East 508 585 37,000  Level FlightAware Transoceanic
05:26PM 41.7583 -136.5868 97° East 508 585 37,000  Level FlightAware Transoceanic
05:27PM 41.7419 -136.3966 97° East 508 585 37,000  Level FlightAware Transoceanic
05:27PM 41.7333 -136.3167 97° East 510 587 37,000  Level Oakland Oceanic (ODAPS)
05:28PM 41.7252 -136.2065 97° East 508 585 37,000  Level FlightAware Transoceanic
05:29PM 41.7081 -136.0166 97° East 508 585 37,000  Level FlightAware Transoceanic
05:30PM 41.6990 -135.8893 97° East 509 586 37,000  Level FlightAware Transoceanic
05:31PM 41.6812 -135.6975 97° East 509 586 37,000  Level FlightAware Transoceanic
05:32PM 41.6630 -135.5057 97° East 509 586 37,000  Level FlightAware Transoceanic
05:33PM 41.6292 -135.1921 97° East 510 587 37,000  Level FlightAware Transoceanic
05:34PM 41.6107 -135.0050 98° East 510 587 37,000  Level FlightAware Transoceanic
05:35PM 41.5920 -134.8181 98° East 510 587 37,000  Level FlightAware Transoceanic
05:36PM 41.5730 -134.6312 98° East 510 587 37,000  Level FlightAware Transoceanic
05:37PM 41.5536 -134.4445 98° East 510 587 37,000  Level FlightAware Transoceanic
05:38PM 41.5340 -134.2578 98° East 510 587 37,000  Level FlightAware Transoceanic
05:38PM 41.5333 -134.2500 98° East 506 582 37,000  Level Oakland Oceanic (ODAPS)
05:39PM 41.5141 -134.0713 98° East 510 587 37,000  Level FlightAware Transoceanic
05:40PM 41.4938 -133.8849 98° East 510 587 37,000  Level FlightAware Transoceanic
05:41PM 41.4733 -133.6986 98° East 510 587 37,000  Level FlightAware Transoceanic
05:42PM 41.4524 -133.5125 99° East 510 587 37,000  Level FlightAware Transoceanic
05:43PM 41.4313 -133.3264 99° East 510 587 37,000  Level FlightAware Transoceanic
05:44PM 41.4147 -133.1811 99° East 506 582 37,000  Level FlightAware Transoceanic
05:45PM 41.3940 -133.0034 99° East 506 582 37,000  Level FlightAware Transoceanic
05:46PM 41.3730 -132.8257 99° East 506 582 37,000  Level FlightAware Transoceanic
05:47PM 41.3517 -132.6482 99° East 506 582 37,000  Level FlightAware Transoceanic
05:48PM 41.3301 -132.4708 99° East 506 582 37,000  Level FlightAware Transoceanic
05:49PM 41.3083 -132.2935 99° East 506 582 37,000  Level FlightAware Transoceanic
05:50PM 41.2862 -132.1163 99° East 506 582 37,000  Level FlightAware Transoceanic
05:51PM 41.2638 -131.9393 100° East 506 582 37,000  Level FlightAware Transoceanic
05:52PM 41.2412 -131.7623 100° East 506 582 37,000  Level FlightAware Transoceanic
05:52PM 41.2333 -131.6833 100° East 508 585 37,000  Level Oakland Oceanic (ODAPS)
05:53PM 41.2183 -131.5855 100° East 506 582 37,000  Level FlightAware Transoceanic
05:54PM 41.1951 -131.4088 100° East 506 582 37,000  Level FlightAware Transoceanic
05:55PM 41.1717 -131.2323 100° East 506 582 37,000  Level FlightAware Transoceanic
05:56PM 41.1479 -131.0558 100° East 506 582 37,000  Level FlightAware Transoceanic
05:57PM 41.1240 -130.8795 100° East 506 582 37,000  Level FlightAware Transoceanic
05:58PM 41.0963 -130.6719 101° East 508 585 37,000  Level FlightAware Transoceanic
05:59PM 41.0726 -130.5037 101° East 508 585 37,000  Level FlightAware Transoceanic
06:00PM 41.0486 -130.3357 101° East 508 585 37,000  Level FlightAware Transoceanic
06:01PM 41.0244 -130.1678 101° East 508 585 37,000  Level FlightAware Transoceanic
06:01PM 41.0000 -130.0000 109° East 503 579 37,000  Level Oakland Oceanic (ODAPS)
06:02PM 41.0000 -130.0000 109° East 508 585 37,000  Level FlightAware Transoceanic
06:03PM 40.9522 -129.8214 110° East 508 585 37,000  Level FlightAware Transoceanic
06:04PM 40.9041 -129.6431 110° East 508 585 37,000  Level FlightAware Transoceanic
06:05PM 40.8557 -129.4651 110° East 508 585 37,000  Level FlightAware Transoceanic
06:06PM 40.8070 -129.2873 110° East 508 585 37,000  Level FlightAware Transoceanic
06:06PM 40.7833 -129.2000 110° East 502 578 37,000  Level Oakland Oceanic (ODAPS)
06:07PM 40.7581 -129.1098 110° East 508 585 37,000  Level FlightAware Transoceanic
06:08PM 40.7089 -128.9325 110° East 503 579 37,000  Level FlightAware Transoceanic
06:09PM 40.6594 -128.7555 110° East 503 579 37,000  Level FlightAware Transoceanic
06:10PM 40.6097 -128.5787 110° East 503 579 37,000  Level FlightAware Transoceanic
06:11PM 40.5597 -128.4023 111° Southeast 503 579 37,000  Level FlightAware Transoceanic
06:12PM 40.4962 -128.1795 111° Southeast 502 578 37,000  Level FlightAware Transoceanic
06:13PM 40.4475 -128.0102 111° Southeast 502 578 37,000  Level FlightAware Transoceanic
06:14PM 40.3985 -127.8412 111° Southeast 502 578 37,000  Level FlightAware Transoceanic
06:15PM 40.3493 -127.6725 111° Southeast 502 578 37,000  Level FlightAware Transoceanic
06:16PM 40.2998 -127.5040 111° Southeast 502 578 37,000 -120 Level FlightAware Transoceanic
06:16PM 40.2942 -127.4750 110° East 499 574 36,900  Descending Oakland Center
06:17PM 40.2501 -127.3357 111° Southeast 502 578 37,000 60 Climbing FlightAware Transoceanic
06:17PM 40.2433 -127.3061 111° Southeast 499 574 37,000  Level Oakland Center
06:18PM 40.2002 -127.1677 111° Southeast 502 578 37,000  Level FlightAware Transoceanic
06:18PM 40.1942 -127.1372 111° Southeast 499 574 37,000  Level Oakland Center
06:19PM 40.1500 -127.0000 110° East 502 578 37,000 -120 Level FlightAware Transoceanic
06:19PM 40.1464 -126.9700 110° East 498 573 36,900  Descending Oakland Center
06:20PM 40.1026 -126.8278 110° East 502 578 37,000  Climbing FlightAware Transoceanic
06:20PM 40.0972 -126.8011 111° Southeast 500 575 36,900  Descending Oakland Center
06:21PM 40.0550 -126.6557 110° East 502 578 37,000  Climbing FlightAware Transoceanic
06:21PM 40.0231 -126.6508 123° Southeast 496 571 36,900  Descending Oakland Center
06:22PM 39.9189 -126.4792 128° Southeast 502 578 37,000  Climbing Oakland Center
06:23PM 39.8344 -126.3364 128° Southeast 501 577 37,000  Level Oakland Center
06:24PM 39.7486 -126.1944 128° Southeast 501 577 37,000  Level Oakland Center
06:25PM 39.6639 -126.0528 128° Southeast 499 574 37,000  Level Oakland Center
06:26PM 39.5786 -125.9108 128° Southeast 501 577 37,000  Level Oakland Center
06:27PM 39.4931 -125.7692 128° Southeast 502 578 37,000  Level Oakland Center
06:28PM 39.3950 -125.6081 128° Southeast 500 575 37,000  Level Oakland Center
06:29PM 39.3075 -125.4672 129° Southeast 503 579 37,000 -60 Level Oakland Center
06:30PM 39.2222 -125.3253 128° Southeast 502 578 36,900  Descending Oakland Center
06:31PM 39.1306 -125.1797 129° Southeast 499 574 37,000  Climbing Oakland Center
06:32PM 39.0442 -125.0386 128° Southeast 502 578 37,000  Level Oakland Center
06:33PM 38.9578 -124.9003 129° Southeast 497 572 37,000  Level Oakland Center
06:34PM 38.8717 -124.7608 128° Southeast 499 574 37,000 -60 Level Oakland Center
06:35PM 38.7833 -124.6222 129° Southeast 502 578 36,900  Descending Oakland Center
06:36PM 38.6969 -124.4839 129° Southeast 499 574 37,000  Climbing Oakland Center
06:37PM 38.5947 -124.3242 129° Southeast 499 574 37,000  Level Oakland Center
06:38PM 38.5081 -124.1869 129° Southeast 498 573 37,000 -60 Level Oakland Center
06:39PM 38.4214 -124.0500 129° Southeast 496 571 36,900  Descending Oakland Center
06:40PM 38.3333 -123.9133 129° Southeast 498 573 37,000  Climbing Oakland Center
06:41PM 38.2461 -123.7775 129° Southeast 498 573 36,900  Descending Oakland Center
06:42PM 38.1575 -123.6425 130° Southeast 498 573 37,000  Climbing Oakland Center
06:44PM 38.0686 -123.5075 130° Southeast 500 575 36,900 -60 Descending Oakland Center
06:45PM 37.9811 -123.3733 130° Southeast 497 572 36,900  Level Oakland Center
06:46PM 37.8744 -123.2111 130° Southeast 501 577 37,000  Climbing Oakland Center
06:47PM 37.7875 -123.0786 130° Southeast 495 570 36,900  Descending Oakland Center
06:48PM 37.6989 -122.9447 130° Southeast 501 577 37,000  Climbing Oakland Center
06:49PM 37.6103 -122.8122 130° Southeast 503 579 37,000  Level Oakland Center
06:50PM 37.5231 -122.6797 130° Southeast 495 570 37,000 -60 Level Oakland Center
06:51PM 37.4344 -122.5464 130° Southeast 497 572 36,900 -60 Descending Oakland Center
06:52PM 37.3272 -122.3869 130° Southeast 498 573 36,900  Level Oakland Center
06:53PM 37.2383 -122.2544 130° Southeast 500 575 36,900  Level Oakland Center
06:54PM 37.1497 -122.1239 130° Southeast 492 566 36,900  Level Oakland Center
06:55PM 37.0611 -121.9911 130° Southeast 496 571 37,000  Climbing Oakland Center
06:56PM 36.9714 -121.8619 131° Southeast 494 568 36,900  Descending Oakland Center
06:57PM 36.8806 -121.7325 131° Southeast 497 572 37,000  Climbing Oakland Center
06:58PM 36.7769 -121.5817 131° Southeast 491 565 37,000 -60 Level Oakland Center
06:59PM 36.6875 -121.4494 130° Southeast 495 570 36,900  Descending Oakland Center
07:00PM 36.5972 -121.3203 131° Southeast 495 570 37,000  Climbing Oakland Center
07:01PM 36.5072 -121.1897 131° Southeast 490 564 37,000 -60 Level Oakland Center
07:02PM 36.4178 -121.0608 131° Southeast 492 566 36,900  Descending Oakland Center
07:03PM 36.3269 -120.9314 131° Southeast 495 570 37,000  Climbing Oakland Center
07:04PM 36.2369 -120.8033 131° Southeast 493 567 36,900  Descending Oakland Center
07:05PM 36.1458 -120.6750 131° Southeast 493 567 37,000  Climbing Oakland Center
07:06PM 36.0561 -120.5444 130° Southeast 495 570 37,000 -60 Level Oakland Center
07:07PM 35.9639 -120.4183 132° Southeast 491 565 36,900  Descending Oakland Center
07:08PM 35.8728 -120.2917 132° Southeast 490 564 37,000  Climbing Oakland Center
07:09PM 35.7633 -120.1375 131° Southeast 493 567 36,900 -60 Descending Oakland Center
07:10PM 35.6697 -120.0078 132° Southeast 501 577 36,900 -60 Level Oakland Center
07:11PM 35.5606 -119.9022 142° Southeast 496 571 36,800 -1,140 Descending Oakland Center
07:12PM 35.4464 -119.8033 145° Southeast 497 572 34,600 -1,980 Descending Oakland Center
07:13PM 35.3347 -119.7081 145° Southeast 487 560 32,800 -1,920 Descending Oakland Center
07:14PM 35.2714 -119.6539 145° Southeast 477 549 31,600 -1,980 Descending Los Angeles Center
07:15PM 35.1656 -119.5644 145° Southeast 464 534 29,600 -1,920 Descending Los Angeles Center
07:16PM 35.0647 -119.4767 145° Southeast 449 517 27,600 -1,920 Descending Los Angeles Center
07:17PM 34.9636 -119.3917 145° Southeast 441 507 25,700 -1,800 Descending Los Angeles Center
07:18PM 34.8658 -119.3078 145° Southeast 431 496 24,000 -1,680 Descending Los Angeles Center
07:19PM 34.7714 -119.2278 145° Southeast 417 480 22,300 -1,800 Descending Los Angeles Center
07:20PM 34.6619 -119.1350 145° Southeast 401 461 20,300 -1,740 Descending Los Angeles Center
07:21PM 34.5725 -119.0625 146° Southeast 397 457 18,800 -1,500 Descending Los Angeles Center
07:22PM 34.4872 -118.9906 145° Southeast 376 433 17,300 -1,500 Descending Los Angeles Center
07:23PM 34.4033 -118.9192 145° Southeast 367 422 15,700 -1,560 Descending Los Angeles Center
07:24PM 34.3128 -118.8642 153° Southeast 363 418 14,100 -1,620 Descending Los Angeles Center
07:25PM 34.2008 -118.8231 163° South 352 405 12,400 -1,380 Descending Los Angeles Center
07:26PM 34.1142 -118.7836 159° South 337 388 11,300 -1,080 Descending Los Angeles Center
07:27PM 34.0697 -118.6897 120° Southeast 297 342 10,300 -1,020 Descending Los Angeles Center
07:28PM 34.0469 -118.5989 107° East 283 326 9,300 -1,080 Descending Los Angeles Center
07:29PM 34.0244 -118.5128 107° East 273 314 8,100 -1,200 Descending Los Angeles Center
07:30PM 34.0131 -118.4331 100° East 268 308 6,900 -1,260 Descending Los Angeles Center
07:31PM 34.0253 -118.3286 82° East 263 303 5,600 -1,260 Descending Los Angeles Center
07:32PM 34.0333 -118.2492 83° East 247 284 4,300 -1,260 Descending Los Angeles Center
07:33PM 34.0064 -118.2019 125° Southeast 218 251 3,000 -1,020 Descending Los Angeles Center
07:34PM 33.9683 -118.2350 216° Southwest 221 254 2,200 -540 Descending Los Angeles Center
07:35PM 33.9628 -118.2972 264° West 200 230 1,900 -540 Descending Los Angeles Center
07:37PM 33.9581 -118.3475 264° West 174 200 1,100 -840 Descending Los Angeles Center
07:38PM 33.9528 -118.4003 263° West 149 171 200 -900 Descending Los Angeles Center
07:40PM 33.9425 -118.4081 228° Southwest  Level Estimated